createdAt,value
2019-02-06T00:01:47.391Z,16.37
2019-02-06T00:03:51.833Z,16.73
2019-02-06T00:05:59.342Z,15.93
2019-02-06T00:08:03.296Z,15.13
2019-02-06T00:10:07.303Z,15.47
2019-02-06T00:12:11.900Z,15.60
2019-02-06T00:14:16.221Z,15.40
2019-02-06T00:16:20.694Z,15.33
2019-02-06T00:18:24.773Z,15.27
2019-02-06T00:20:32.683Z,14.80
2019-02-06T00:22:37.488Z,15.33
2019-02-06T00:24:41.701Z,15.13
2019-02-06T00:26:47.378Z,14.87
2019-02-06T00:28:51.272Z,14.20
2019-02-06T00:30:55.320Z,13.33
2019-02-06T00:33:00.255Z,16.43
2019-02-06T00:35:04.555Z,15.60
2019-02-06T00:37:08.777Z,15.80
2019-02-06T00:39:12.476Z,15.83
2019-02-06T00:41:17.310Z,14.03
2019-02-06T00:43:21.655Z,14.30
2019-02-06T00:45:27.764Z,15.77
2019-02-06T00:47:31.628Z,16.57
2019-02-06T00:49:35.495Z,16.27
2019-02-06T00:51:39.963Z,14.60
2019-02-06T00:53:43.793Z,14.13
2019-02-06T00:55:48.599Z,13.57
2019-02-06T00:57:52.614Z,14.90
2019-02-06T00:59:58.595Z,15.30
2019-02-06T01:02:02.939Z,16.43
2019-02-06T01:04:08.911Z,13.80
2019-02-06T01:06:13.574Z,16.20
2019-02-06T01:08:17.686Z,14.70
2019-02-06T01:10:22.670Z,14.63
2019-02-06T01:12:27.207Z,15.10
2019-02-06T01:14:31.659Z,14.80
2019-02-06T01:16:36.723Z,14.80
2019-02-06T01:18:41.773Z,15.50
2019-02-06T01:20:46.715Z,14.90
2019-02-06T01:22:54.534Z,13.50
2019-02-06T01:24:58.396Z,14.73
2019-02-06T01:27:03.315Z,15.13
2019-02-06T01:29:07.473Z,11.33
2019-02-06T01:31:16.471Z,14.10
2019-02-06T01:33:20.455Z,14.40
2019-02-06T01:35:25.117Z,13.07
2019-02-06T01:37:29.231Z,15.20
2019-02-06T01:39:34.025Z,14.67
2019-02-06T01:41:38.189Z,13.27
2019-02-06T01:43:42.175Z,15.40
2019-02-06T01:45:46.323Z,14.23
2019-02-06T01:47:50.289Z,14.80
2019-02-06T01:49:54.764Z,15.07
2019-02-06T01:51:59.058Z,13.43
2019-02-06T01:54:02.956Z,14.27
2019-02-06T01:56:07.448Z,14.67
2019-02-06T01:58:11.332Z,14.07
2019-02-06T02:00:20.030Z,13.23
2019-02-06T02:02:26.428Z,13.40
2019-02-06T02:04:30.399Z,15.40
2019-02-06T02:06:34.948Z,14.93
2019-02-06T02:08:42.129Z,15.37
2019-02-06T02:10:45.865Z,14.53
2019-02-06T02:12:50.534Z,14.40
2019-02-06T02:14:54.592Z,14.83
2019-02-06T02:16:59.775Z,14.00
2019-02-06T02:19:03.861Z,13.90
2019-02-06T02:21:08.900Z,13.13
2019-02-06T02:23:13.239Z,14.47
2019-02-06T02:25:18.362Z,13.83
2019-02-06T02:27:23.000Z,13.13
2019-02-06T02:29:27.040Z,13.83
2019-02-06T02:31:31.993Z,13.37
2019-02-06T02:33:36.113Z,13.67
2019-02-06T02:35:41.648Z,13.40
2019-02-06T02:37:46.515Z,14.50
2019-02-06T02:39:51.349Z,12.10
2019-02-06T02:41:56.055Z,15.07
2019-02-06T02:44:00.028Z,13.33
2019-02-06T02:46:04.065Z,13.47
2019-02-06T02:48:08.263Z,12.77
2019-02-06T02:50:12.262Z,14.00
2019-02-06T02:52:18.249Z,13.53
2019-02-06T02:54:22.123Z,12.87
2019-02-06T02:56:27.477Z,12.63
2019-02-06T02:58:31.425Z,13.13
2019-02-06T03:00:58.275Z,12.87
2019-02-06T03:03:06.581Z,12.97
2019-02-06T03:05:14.970Z,13.43
2019-02-06T03:07:18.965Z,11.63
2019-02-06T03:09:24.862Z,12.63
2019-02-06T03:11:29.077Z,13.10
2019-02-06T03:13:33.339Z,14.30
2019-02-06T03:15:37.736Z,13.17
2019-02-06T03:17:41.867Z,13.83
2019-02-06T03:19:46.619Z,11.73
2019-02-06T03:21:51.213Z,12.90
2019-02-06T03:23:55.086Z,12.93
2019-02-06T03:25:59.402Z,11.80
2019-02-06T03:28:03.430Z,12.73
2019-02-06T03:30:09.493Z,12.50
2019-02-06T03:32:13.709Z,11.73
2019-02-06T03:34:18.914Z,12.07
2019-02-06T03:36:23.982Z,13.23
2019-02-06T03:38:27.969Z,13.40
2019-02-06T03:40:34.077Z,11.63
2019-02-06T03:42:37.914Z,10.90
2019-02-06T03:44:42.765Z,12.87
2019-02-06T03:46:46.625Z,12.10
2019-02-06T03:48:50.551Z,12.87
2019-02-06T03:50:56.631Z,12.33
2019-02-06T03:53:00.672Z,12.90
2019-02-06T03:55:07.056Z,12.30
2019-02-06T03:57:10.899Z,12.33
2019-02-06T03:59:14.793Z,12.50
2019-02-06T04:01:19.760Z,12.93
2019-02-06T04:03:26.754Z,13.83
2019-02-06T04:05:30.912Z,14.53
2019-02-06T04:07:34.759Z,11.70
2019-02-06T04:09:38.571Z,13.03
2019-02-06T04:11:43.303Z,11.63
2019-02-06T04:13:47.312Z,13.60
2019-02-06T04:15:52.162Z,12.57
2019-02-06T04:17:57.016Z,11.50
2019-02-06T04:20:01.543Z,12.10
2019-02-06T04:22:05.402Z,13.53
2019-02-06T04:24:09.300Z,13.17
2019-02-06T04:26:13.385Z,13.07
2019-02-06T04:28:17.318Z,11.57
2019-02-06T04:30:21.812Z,12.40
2019-02-06T04:32:25.583Z,11.77
2019-02-06T04:34:29.556Z,11.97
2019-02-06T04:36:33.837Z,12.20
2019-02-06T04:38:37.891Z,12.20
2019-02-06T04:40:46.404Z,11.70
2019-02-06T04:42:50.294Z,11.60
2019-02-06T04:44:54.069Z,12.70
2019-02-06T04:46:59.218Z,13.10
2019-02-06T04:49:03.191Z,12.83
2019-02-06T04:51:08.817Z,12.30
2019-02-06T04:53:12.739Z,12.37
2019-02-06T04:55:16.846Z,11.17
2019-02-06T04:57:21.534Z,11.37
2019-02-06T04:59:25.640Z,12.80
2019-02-06T05:01:29.759Z,9.80
2019-02-06T05:03:35.697Z,10.43
2019-02-06T05:05:40.318Z,12.90
2019-02-06T05:07:44.480Z,10.27
2019-02-06T05:09:48.422Z,11.87
2019-02-06T05:11:52.983Z,12.20
2019-02-06T05:13:56.982Z,9.80
2019-02-06T05:16:01.562Z,9.67
2019-02-06T05:18:08.069Z,10.90
2019-02-06T05:20:28.881Z,10.67
2019-02-06T05:22:33.846Z,9.53
2019-02-06T05:24:37.844Z,9.63
2019-02-06T05:26:42.570Z,10.93
2019-02-06T05:28:47.703Z,10.93
2019-02-06T05:30:52.021Z,10.20
2019-02-06T05:32:56.074Z,9.53
2019-02-06T05:35:02.945Z,10.93
2019-02-06T05:37:09.931Z,11.03
2019-02-06T05:39:13.828Z,11.03
2019-02-06T05:41:22.314Z,9.57
2019-02-06T05:43:26.651Z,12.00
2019-02-06T05:45:30.864Z,9.80
2019-02-06T05:47:35.402Z,10.47
2019-02-06T05:49:39.414Z,12.23
2019-02-06T05:51:46.157Z,11.47
2019-02-06T05:53:50.275Z,11.77
2019-02-06T05:55:54.439Z,10.80
2019-02-06T05:57:58.941Z,11.77
2019-02-06T06:00:03.932Z,10.83
2019-02-06T06:02:08.460Z,12.00
2019-02-06T06:04:12.675Z,11.07
2019-02-06T06:06:17.250Z,9.30
2019-02-06T06:08:21.118Z,11.10
2019-02-06T06:10:24.985Z,13.30
2019-02-06T06:12:29.661Z,9.67
2019-02-06T06:14:33.565Z,11.80
2019-02-06T06:16:38.493Z,12.50
2019-02-06T06:18:42.815Z,10.90
2019-02-06T06:20:46.543Z,10.83
2019-02-06T06:22:51.139Z,12.23
2019-02-06T06:24:55.097Z,12.03
2019-02-06T06:27:00.165Z,12.03
2019-02-06T06:29:04.058Z,11.60
2019-02-06T06:31:10.572Z,11.97
2019-02-06T06:33:15.692Z,10.70
2019-02-06T06:35:19.636Z,11.03
2019-02-06T06:37:23.700Z,12.20
2019-02-06T06:39:27.706Z,12.33
2019-02-06T06:41:31.603Z,12.50
2019-02-06T06:43:36.146Z,10.93
2019-02-06T06:45:40.225Z,12.30
2019-02-06T06:47:45.076Z,11.30
2019-02-06T06:49:48.933Z,10.83
2019-02-06T06:51:55.953Z,13.17
2019-02-06T06:53:59.922Z,12.37
2019-02-06T06:56:03.941Z,9.87
2019-02-06T06:58:08.943Z,10.97
2019-02-06T07:00:22.038Z,11.67
2019-02-06T07:02:26.633Z,10.87
2019-02-06T07:04:30.496Z,9.43
2019-02-06T07:06:36.705Z,11.97
2019-02-06T07:08:40.692Z,10.67
2019-02-06T07:10:44.747Z,11.50
2019-02-06T07:12:48.857Z,13.43
2019-02-06T07:14:52.959Z,10.67
2019-02-06T07:16:59.667Z,12.73
2019-02-06T07:19:03.591Z,12.83
2019-02-06T07:21:07.476Z,11.17
2019-02-06T07:23:12.265Z,11.00
2019-02-06T07:25:17.240Z,12.57
2019-02-06T07:27:21.498Z,11.17
2019-02-06T07:29:25.495Z,13.60
2019-02-06T07:31:29.379Z,12.90
2019-02-06T07:33:34.253Z,11.10
2019-02-06T07:35:38.284Z,12.00
2019-02-06T07:37:43.030Z,11.33
2019-02-06T07:39:46.955Z,11.17
2019-02-06T07:41:50.787Z,11.93
2019-02-06T07:43:55.322Z,9.73
2019-02-06T07:45:59.310Z,9.70
2019-02-06T07:48:06.735Z,10.57
2019-02-06T07:50:16.298Z,12.17
2019-02-06T07:52:20.914Z,9.20
2019-02-06T07:54:25.981Z,12.97
2019-02-06T07:56:29.927Z,11.30
2019-02-06T07:58:34.489Z,12.63
2019-02-06T08:00:38.578Z,13.40
2019-02-06T08:02:44.407Z,11.60
2019-02-06T08:04:48.175Z,10.07
2019-02-06T08:06:52.114Z,9.90
2019-02-06T08:08:56.996Z,9.90
2019-02-06T08:11:03.101Z,10.97
2019-02-06T08:13:08.686Z,11.60
2019-02-06T08:15:13.830Z,11.23
2019-02-06T08:17:17.721Z,11.23
2019-02-06T08:19:22.473Z,9.57
2019-02-06T08:21:26.466Z,11.03
2019-02-06T08:23:31.342Z,11.03
2019-02-06T08:25:35.222Z,10.87
2019-02-06T08:27:41.231Z,8.67
2019-02-06T08:29:45.899Z,11.00
2019-02-06T08:31:49.613Z,11.17
2019-02-06T08:33:54.581Z,12.40
2019-02-06T08:35:58.523Z,10.97
2019-02-06T08:38:02.868Z,11.97
2019-02-06T08:40:07.489Z,11.70
2019-02-06T08:42:11.440Z,13.33
2019-02-06T08:44:16.643Z,11.73
2019-02-06T08:46:20.592Z,12.57
2019-02-06T08:48:25.494Z,11.73
2019-02-06T08:50:29.385Z,13.17
2019-02-06T08:52:33.591Z,12.77
2019-02-06T08:54:38.504Z,12.53
2019-02-06T08:56:42.352Z,12.83
2019-02-06T08:58:46.304Z,11.87
2019-02-06T09:00:50.257Z,11.97
2019-02-06T09:02:54.140Z,12.70
2019-02-06T09:04:58.940Z,13.63
2019-02-06T09:07:02.817Z,14.53
2019-02-06T09:09:56.904Z,18.48
2019-02-06T09:12:01.250Z,13.30
2019-02-06T09:14:07.816Z,13.23
2019-02-06T09:16:11.943Z,13.87
2019-02-06T09:18:16.598Z,13.57
2019-02-06T09:20:22.533Z,13.03
2019-02-06T09:22:26.540Z,11.63
2019-02-06T09:24:31.877Z,13.07
2019-02-06T09:26:36.309Z,10.70
2019-02-06T09:28:40.755Z,12.60
2019-02-06T09:30:45.005Z,14.30
2019-02-06T09:32:50.027Z,14.17
2019-02-06T09:34:54.241Z,13.77
2019-02-06T09:37:00.111Z,12.47
2019-02-06T09:39:11.744Z,14.37
2019-02-06T09:41:12.331Z,13.17
2019-02-06T09:43:16.348Z,10.50
2019-02-06T09:45:21.159Z,14.10
2019-02-06T09:47:25.105Z,11.40
2019-02-06T09:49:29.387Z,11.67
2019-02-06T09:51:33.288Z,11.60
2019-02-06T09:53:37.896Z,10.17
2019-02-06T09:55:42.094Z,11.97
2019-02-06T09:57:45.894Z,10.77
2019-02-06T09:59:50.115Z,12.60
2019-02-06T10:01:54.181Z,11.07
2019-02-06T10:03:58.882Z,12.30
2019-02-06T10:06:03.221Z,11.93
2019-02-06T10:08:07.191Z,11.60
2019-02-06T10:10:15.706Z,11.13
2019-02-06T10:12:20.251Z,13.73
2019-02-06T10:14:24.629Z,12.57
2019-02-06T10:16:29.663Z,14.03
2019-02-06T10:18:33.597Z,11.57
2019-02-06T10:20:49.227Z,11.37
2019-02-06T10:22:54.573Z,11.40
2019-02-06T10:24:58.363Z,12.40
2019-02-06T10:27:02.389Z,13.13
2019-02-06T10:29:06.876Z,12.53
2019-02-06T10:31:11.603Z,13.17
2019-02-06T10:33:18.444Z,12.20
2019-02-06T10:35:21.403Z,11.20
2019-02-06T10:37:29.236Z,12.40
2019-02-06T10:39:39.132Z,11.07
2019-02-06T10:41:43.341Z,11.27
2019-02-06T10:43:47.745Z,10.40
2019-02-06T10:45:52.295Z,14.13
2019-02-06T10:47:56.287Z,13.63
2019-02-06T10:50:02.030Z,14.50
2019-02-06T10:52:06.154Z,13.20
2019-02-06T10:54:10.095Z,14.93
2019-02-06T10:56:15.066Z,14.53
2019-02-06T10:58:20.007Z,13.87
2019-02-06T11:00:29.795Z,14.50
2019-02-06T11:02:34.625Z,14.83
2019-02-06T11:04:39.089Z,14.73
2019-02-06T11:06:45.895Z,14.70
2019-02-06T11:08:49.771Z,13.60
2019-02-06T11:10:54.649Z,13.23
2019-02-06T11:12:58.636Z,14.63
2019-02-06T11:15:02.959Z,15.03
2019-02-06T11:17:07.039Z,13.23
2019-02-06T11:19:12.907Z,16.30
2019-02-06T11:21:20.255Z,14.97
2019-02-06T11:23:24.306Z,16.10
2019-02-06T11:25:29.199Z,14.93
2019-02-06T11:27:33.659Z,14.80
2019-02-06T11:29:38.028Z,16.03
2019-02-06T11:31:41.998Z,16.57
2019-02-06T11:33:46.034Z,17.47
2019-02-06T11:35:50.346Z,16.90
2019-02-06T11:37:54.487Z,16.40
2019-02-06T11:39:59.383Z,15.50
2019-02-06T11:42:04.003Z,15.87
2019-02-06T11:44:08.486Z,15.67
2019-02-06T11:46:12.721Z,16.10
2019-02-06T11:48:16.697Z,16.20
2019-02-06T11:50:24.269Z,14.67
2019-02-06T11:52:28.296Z,15.40
2019-02-06T11:54:33.289Z,15.00
2019-02-06T11:56:37.312Z,15.67
2019-02-06T11:58:41.744Z,15.27
2019-02-06T12:01:14.378Z,16.47
2019-02-06T12:03:18.250Z,15.87
2019-02-06T12:05:22.820Z,15.27
2019-02-06T12:07:26.745Z,14.43
2019-02-06T12:09:32.669Z,15.30
2019-02-06T12:11:39.104Z,15.87
2019-02-06T12:13:43.051Z,16.00
2019-02-06T12:15:48.293Z,18.13
2019-02-06T12:17:52.348Z,16.83
2019-02-06T12:20:00.049Z,17.77
2019-02-06T12:22:06.828Z,16.27
2019-02-06T12:24:12.815Z,16.70
2019-02-06T12:26:16.730Z,16.40
2019-02-06T12:28:20.690Z,15.47
2019-02-06T12:30:34.167Z,14.27
2019-02-06T12:32:39.249Z,16.40
2019-02-06T12:34:48.217Z,16.80
2019-02-06T12:36:52.442Z,16.47
2019-02-06T12:38:56.524Z,16.83
2019-02-06T12:41:01.321Z,15.93
2019-02-06T12:43:06.200Z,17.50
2019-02-06T12:45:11.775Z,16.80
2019-02-06T12:47:15.775Z,15.43
2019-02-06T12:49:19.775Z,17.73
2019-02-06T12:51:24.359Z,16.47
2019-02-06T12:53:28.424Z,16.13
2019-02-06T12:55:35.724Z,15.27
2019-02-06T12:57:39.841Z,15.33
2019-02-06T12:59:44.471Z,16.10
2019-02-06T13:01:51.533Z,15.70
2019-02-06T13:03:58.183Z,16.73
2019-02-06T13:06:03.063Z,14.77
2019-02-06T13:08:07.948Z,14.10
2019-02-06T13:10:12.663Z,15.87
2019-02-06T13:12:20.989Z,14.30
2019-02-06T13:14:25.562Z,12.77
2019-02-06T13:16:30.379Z,15.33
2019-02-06T13:18:35.044Z,14.43
2019-02-06T13:20:40.732Z,14.50
2019-02-06T13:22:44.630Z,14.87
2019-02-06T13:24:48.850Z,14.73
2019-02-06T13:26:52.961Z,12.53
2019-02-06T13:28:57.396Z,14.37
2019-02-06T13:31:01.730Z,14.90
2019-02-06T13:33:06.478Z,13.67
2019-02-06T13:35:11.387Z,14.17
2019-02-06T13:37:16.824Z,14.20
2019-02-06T13:39:21.074Z,13.67
2019-02-06T13:41:25.628Z,14.20
2019-02-06T13:43:29.720Z,13.73
2019-02-06T13:45:36.278Z,15.07
2019-02-06T13:47:40.172Z,13.27
2019-02-06T13:49:46.957Z,12.50
2019-02-06T13:51:52.025Z,13.20
2019-02-06T13:53:56.545Z,14.37
2019-02-06T13:56:01.423Z,12.67
2019-02-06T13:58:05.540Z,13.10
2019-02-06T14:00:17.357Z,12.83
2019-02-06T14:02:21.486Z,13.67
2019-02-06T14:04:25.461Z,14.80
2019-02-06T14:06:29.723Z,14.17
2019-02-06T14:08:33.756Z,13.80
2019-02-06T14:10:40.437Z,13.33
2019-02-06T14:12:44.273Z,13.30
2019-02-06T14:14:48.221Z,13.10
2019-02-06T14:16:53.070Z,13.03
2019-02-06T14:18:57.028Z,10.80
2019-02-06T14:21:01.869Z,13.07
2019-02-06T14:23:09.245Z,13.47
2019-02-06T14:25:44.745Z,13.60
2019-02-06T14:28:16.525Z,12.80
2019-02-06T14:30:30.358Z,13.37
2019-02-06T14:33:16.133Z,12.47
2019-02-06T14:36:10.774Z,12.07
2019-02-06T14:39:04.035Z,10.10
2019-02-06T14:41:35.516Z,13.50
2019-02-06T14:44:13.244Z,11.90
2019-02-06T14:46:57.056Z,12.20
2019-02-06T14:49:38.301Z,12.40
2019-02-06T14:52:15.222Z,11.37
2019-02-06T14:54:41.447Z,12.77
2019-02-06T14:57:07.149Z,11.67
2019-02-06T15:00:04.303Z,13.27
2019-02-06T15:02:41.651Z,12.53
2019-02-06T15:05:25.931Z,12.23
2019-02-06T15:08:20.137Z,11.97
2019-02-06T15:10:39.160Z,11.40
2019-02-06T15:13:37.158Z,11.40
2019-02-06T15:16:10.593Z,11.70
2019-02-06T15:19:10.067Z,11.57
2019-02-06T15:21:46.463Z,11.40
2019-02-06T15:24:36.774Z,11.63
2019-02-06T15:27:15.516Z,10.87
2019-02-06T15:29:59.431Z,11.57
2019-02-06T15:32:30.867Z,11.00
2019-02-06T15:35:04.032Z,11.47
2019-02-06T15:37:33.603Z,11.17
2019-02-06T15:40:28.125Z,11.17
2019-02-06T15:43:20.308Z,11.23
2019-02-06T15:45:36.741Z,10.50
2019-02-06T15:47:56.893Z,11.27
2019-02-06T15:50:43.343Z,10.23
2019-02-06T15:53:35.236Z,10.63
2019-02-06T15:56:20.542Z,11.17
2019-02-06T15:59:12.272Z,10.63
2019-02-06T16:01:38.291Z,10.17
2019-02-06T16:04:47.382Z,11.30
2019-02-06T16:07:36.987Z,10.67
2019-02-06T16:10:05.962Z,9.63
2019-02-06T16:12:29.570Z,10.87
2019-02-06T16:15:23.838Z,9.93
2019-02-06T16:18:03.615Z,10.67
2019-02-06T16:20:51.012Z,10.20
2019-02-06T16:23:37.527Z,10.93
2019-02-06T16:26:13.171Z,10.70
2019-02-06T16:29:10.289Z,10.93
2019-02-06T16:31:37.711Z,11.03
2019-02-06T16:34:20.249Z,9.73
2019-02-06T16:36:56.165Z,9.73
2019-02-06T16:39:20.800Z,10.93
2019-02-06T16:42:00.256Z,11.83
2019-02-06T16:44:39.095Z,11.37
2019-02-06T16:47:20.796Z,9.93
2019-02-06T16:49:55.010Z,10.53
2019-02-06T16:52:15.170Z,10.67
2019-02-06T16:55:03.459Z,10.47
2019-02-06T16:58:06.036Z,10.17
2019-02-06T17:00:59.308Z,10.30
2019-02-06T17:04:08.570Z,11.07
2019-02-06T17:06:26.408Z,9.67
2019-02-06T17:09:07.351Z,11.90
2019-02-06T17:12:04.375Z,10.67
2019-02-06T17:14:39.922Z,10.93
2019-02-06T17:17:29.811Z,10.50
2019-02-06T17:19:56.808Z,11.37
2019-02-06T17:22:44.600Z,12.13
2019-02-06T17:25:27.490Z,11.27
2019-02-06T17:28:25.540Z,10.97
2019-02-06T17:31:25.219Z,11.40
2019-02-06T17:34:05.378Z,13.10
2019-02-06T17:36:43.905Z,11.70
2019-02-06T17:39:24.329Z,11.87
2019-02-06T17:42:15.902Z,11.90
2019-02-06T17:44:54.614Z,12.60
2019-02-06T17:47:48.879Z,11.23
2019-02-06T17:50:34.500Z,10.80
2019-02-06T17:53:05.829Z,13.73
2019-02-06T17:55:21.517Z,12.40
2019-02-06T17:57:25.521Z,12.40
2019-02-06T17:59:30.004Z,13.70
2019-02-06T18:01:45.269Z,12.80
2019-02-06T18:03:53.886Z,14.20
2019-02-06T18:05:59.882Z,13.30
2019-02-06T18:08:04.640Z,13.67
2019-02-06T18:10:14.788Z,12.33
2019-02-06T18:12:26.275Z,14.00
2019-02-06T18:14:26.851Z,11.73
2019-02-06T18:16:32.206Z,12.50
2019-02-06T18:18:36.712Z,12.90
2019-02-06T18:20:41.819Z,12.70
2019-02-06T18:22:46.031Z,14.00
2019-02-06T18:24:51.300Z,13.10
2019-02-06T18:26:55.461Z,12.77
2019-02-06T18:28:59.933Z,12.57
2019-02-06T18:31:05.983Z,13.10
2019-02-06T18:33:10.688Z,13.33
2019-02-06T18:35:15.628Z,11.83
2019-02-06T18:37:20.111Z,14.00
2019-02-06T18:39:24.479Z,13.97
2019-02-06T18:41:28.853Z,12.37
2019-02-06T18:43:33.317Z,15.20
2019-02-06T18:45:38.594Z,13.90
2019-02-06T18:47:43.849Z,12.83
2019-02-06T18:49:48.199Z,13.73
2019-02-06T18:51:52.913Z,15.60
2019-02-06T18:53:58.185Z,13.23
2019-02-06T18:56:04.175Z,14.57
2019-02-06T18:58:08.749Z,13.50
2019-02-06T19:00:17.293Z,14.50
2019-02-06T19:02:22.539Z,15.43
2019-02-06T19:04:28.176Z,14.90
2019-02-06T19:06:33.865Z,12.63
2019-02-06T19:08:40.096Z,13.33
2019-02-06T19:10:45.704Z,13.13
2019-02-06T19:12:50.793Z,13.13
2019-02-06T19:14:55.156Z,14.83
2019-02-06T19:17:00.706Z,13.67
2019-02-06T19:19:06.267Z,12.90
2019-02-06T19:21:11.989Z,13.83
2019-02-06T19:23:16.374Z,12.40
2019-02-06T19:25:23.910Z,13.10
2019-02-06T19:27:27.947Z,12.13
2019-02-06T19:29:33.525Z,14.10
2019-02-06T19:31:38.799Z,12.87
2019-02-06T19:33:43.565Z,12.67
2019-02-06T19:35:49.190Z,12.93
2019-02-06T19:37:53.954Z,13.00
2019-02-06T19:39:58.864Z,12.37
2019-02-06T19:42:05.000Z,13.93
2019-02-06T19:44:11.260Z,12.97
2019-02-06T19:46:16.772Z,13.77
2019-02-06T19:48:22.465Z,13.87
2019-02-06T19:50:33.107Z,12.57
2019-02-06T19:52:37.846Z,13.43
2019-02-06T19:54:46.177Z,13.00
2019-02-06T19:56:52.185Z,13.87
2019-02-06T19:58:59.087Z,13.40
2019-02-06T20:01:04.985Z,13.70
2019-02-06T20:03:11.254Z,14.00
2019-02-06T20:05:16.174Z,13.87
2019-02-06T20:07:22.598Z,14.77
2019-02-06T20:09:30.432Z,14.70
2019-02-06T20:11:38.807Z,14.13
2019-02-06T20:13:44.198Z,14.33
2019-02-06T20:15:48.994Z,13.77
2019-02-06T20:17:53.075Z,13.93
2019-02-06T20:19:57.335Z,14.03
2019-02-06T20:22:01.691Z,13.33
2019-02-06T20:24:06.335Z,13.73
2019-02-06T20:26:11.318Z,14.07
2019-02-06T20:28:18.705Z,13.63
2019-02-06T20:30:24.961Z,13.70
2019-02-06T20:32:30.107Z,12.77
2019-02-06T20:34:34.281Z,11.70
2019-02-06T20:36:39.237Z,12.57
2019-02-06T20:38:43.680Z,13.70
2019-02-06T20:40:47.879Z,12.83
2019-02-06T20:42:53.127Z,12.73
2019-02-06T20:44:57.395Z,12.57
2019-02-06T20:47:02.127Z,14.20
2019-02-06T20:49:08.293Z,14.63
2019-02-06T20:51:12.488Z,13.23
2019-02-06T20:53:16.895Z,12.30
2019-02-06T20:55:21.223Z,11.93
2019-02-06T20:57:25.480Z,13.73
2019-02-06T20:59:29.565Z,12.47
2019-02-06T21:01:33.805Z,13.23
2019-02-06T21:03:39.016Z,13.10
2019-02-06T21:05:43.315Z,11.23
2019-02-06T21:07:47.399Z,12.43
2019-02-06T21:09:51.554Z,11.97
2019-02-06T21:11:56.022Z,12.93
2019-02-06T21:14:00.117Z,11.73
2019-02-06T21:16:04.210Z,13.37
2019-02-06T21:18:08.487Z,11.80
2019-02-06T21:20:14.520Z,13.57
2019-02-06T21:22:18.650Z,14.50
2019-02-06T21:24:23.113Z,11.33
2019-02-06T21:26:27.042Z,12.10
2019-02-06T21:28:31.690Z,11.60
2019-02-06T21:30:36.232Z,13.53
2019-02-06T21:32:41.296Z,12.70
2019-02-06T21:34:45.325Z,13.07
2019-02-06T21:36:49.336Z,13.03
2019-02-06T21:38:53.542Z,12.27
2019-02-06T21:40:57.830Z,12.20
2019-02-06T21:43:02.047Z,12.00
2019-02-06T21:45:06.810Z,12.37
2019-02-06T21:47:11.371Z,12.03
2019-02-06T21:49:16.527Z,13.07
2019-02-06T21:51:20.857Z,12.17
2019-02-06T21:53:24.952Z,12.40
2019-02-06T21:55:28.992Z,13.63
2019-02-06T21:57:33.051Z,13.67
2019-02-06T21:59:39.662Z,12.67
2019-02-06T22:01:43.973Z,13.73
2019-02-06T22:03:48.186Z,13.20
2019-02-06T22:05:53.262Z,14.80
2019-02-06T22:07:57.470Z,13.80
2019-02-06T22:10:01.556Z,12.03
2019-02-06T22:12:06.664Z,12.83
2019-02-06T22:14:10.828Z,13.03
2019-02-06T22:16:14.679Z,13.87
2019-02-06T22:18:20.733Z,12.40
2019-02-06T22:20:24.895Z,12.73
2019-02-06T22:22:29.011Z,12.50
2019-02-06T22:24:35.554Z,11.93
2019-02-06T22:26:39.570Z,11.67
2019-02-06T22:28:46.648Z,12.77
2019-02-06T22:30:50.849Z,13.10
2019-02-06T22:32:55.070Z,11.17
2019-02-06T22:34:59.326Z,11.90
2019-02-06T22:37:03.243Z,12.40
2019-02-06T22:39:11.579Z,11.13
2019-02-06T22:41:15.556Z,10.57
2019-02-06T22:43:19.643Z,12.50
2019-02-06T22:45:27.560Z,11.57
2019-02-06T22:47:31.563Z,11.10
2019-02-06T22:49:35.554Z,9.17
2019-02-06T22:51:40.506Z,12.13
2019-02-06T22:53:45.710Z,11.20
2019-02-06T22:55:50.024Z,11.93
2019-02-06T22:57:54.286Z,12.07
2019-02-06T22:59:58.570Z,12.20
2019-02-06T23:02:02.657Z,13.27
2019-02-06T23:04:07.667Z,12.47
2019-02-06T23:06:12.094Z,11.63
2019-02-06T23:08:16.681Z,12.40
2019-02-06T23:10:20.658Z,13.03
2019-02-06T23:12:27.424Z,12.97
2019-02-06T23:14:31.622Z,11.80
2019-02-06T23:16:36.646Z,10.53
2019-02-06T23:18:41.356Z,10.83
2019-02-06T23:20:45.553Z,11.47
2019-02-06T23:22:50.034Z,10.23
2019-02-06T23:24:54.364Z,11.63
2019-02-06T23:26:58.389Z,12.03
2019-02-06T23:29:03.592Z,11.43
2019-02-06T23:31:07.982Z,12.53
2019-02-06T23:33:12.019Z,11.13
2019-02-06T23:35:16.227Z,12.17
2019-02-06T23:37:20.138Z,12.60
2019-02-06T23:39:42.591Z,12.00
2019-02-06T23:42:03.763Z,11.97
2019-02-06T23:44:07.763Z,11.80
2019-02-06T23:46:12.032Z,11.00
2019-02-06T23:48:16.195Z,12.00
2019-02-06T23:50:20.096Z,11.53
2019-02-06T23:52:31.621Z,10.80
2019-02-06T23:54:35.794Z,11.73
2019-02-06T23:56:47.277Z,11.23
2019-02-06T23:58:51.506Z,10.73
